sensor_id;sensor_type;location;lat;lon;timestamp;pressure;altitude;pressure_sealevel;temperature;humidity
4085;BME280;2057;50.858;6.572;2023-02-16T00:00:35;101284.75;;;2.64;100.00
4085;BME280;2057;50.858;6.572;2023-02-16T00:03:01;101279.25;;;2.68;100.00
4085;BME280;2057;50.858;6.572;2023-02-16T00:05:31;101277.66;;;2.69;100.00
4085;BME280;2057;50.858;6.572;2023-02-16T00:07:57;101282.19;;;2.73;100.00
4085;BME280;2057;50.858;6.572;2023-02-16T00:10:25;101284.84;;;2.74;100.00
4085;BME280;2057;50.858;6.572;2023-02-16T00:12:54;101285.69;;;2.83;100.00
4085;BME280;2057;50.858;6.572;2023-02-16T00:15:38;101285.31;;;2.70;100.00
4085;BME280;2057;50.858;6.572;2023-02-16T00:18:13;101294.34;;;2.59;100.00
4085;BME280;2057;50.858;6.572;2023-02-16T00:20:40;101284.88;;;2.57;100.00
4085;BME280;2057;50.858;6.572;2023-02-16T00:23:05;101283.44;;;2.50;100.00
4085;BME280;2057;50.858;6.572;2023-02-16T00:25:31;101267.84;;;2.35;100.00
4085;BME280;2057;50.858;6.572;2023-02-16T00:27:56;101272.69;;;2.42;100.00
4085;BME280;2057;50.858;6.572;2023-02-16T00:30:21;101278.41;;;2.59;100.00
4085;BME280;2057;50.858;6.572;2023-02-16T00:32:47;101284.63;;;2.54;100.00
4085;BME280;2057;50.858;6.572;2023-02-16T00:35:17;101278.88;;;2.46;100.00
4085;BME280;2057;50.858;6.572;2023-02-16T00:37:42;101278.75;;;2.27;100.00
4085;BME280;2057;50.858;6.572;2023-02-16T00:40:11;101275.38;;;2.17;100.00
4085;BME280;2057;50.858;6.572;2023-02-16T00:42:37;101280.69;;;2.03;100.00
4085;BME280;2057;50.858;6.572;2023-02-16T00:45:03;101275.53;;;1.93;100.00
4085;BME280;2057;50.858;6.572;2023-02-16T00:47:36;101265.38;;;2.00;100.00
4085;BME280;2057;50.858;6.572;2023-02-16T00:50:13;101266.66;;;2.05;100.00
4085;BME280;2057;50.858;6.572;2023-02-16T00:52:40;101278.31;;;1.96;100.00
4085;BME280;2057;50.858;6.572;2023-02-16T00:55:12;101269.78;;;2.02;100.00
4085;BME280;2057;50.858;6.572;2023-02-16T00:57:44;101274.66;;;2.01;100.00
4085;BME280;2057;50.858;6.572;2023-02-16T01:00:32;101273.59;;;1.99;100.00
4085;BME280;2057;50.858;6.572;2023-02-16T01:03:00;101257.25;;;2.02;100.00
4085;BME280;2057;50.858;6.572;2023-02-16T01:05:26;101262.13;;;2.01;100.00
4085;BME280;2057;50.858;6.572;2023-02-16T01:07:52;101262.84;;;2.00;100.00
4085;BME280;2057;50.858;6.572;2023-02-16T01:10:37;101260.66;;;2.03;100.00
4085;BME280;2057;50.858;6.572;2023-02-16T01:13:22;101256.66;;;1.87;100.00
4085;BME280;2057;50.858;6.572;2023-02-16T01:15:48;101248.88;;;2.02;100.00
4085;BME280;2057;50.858;6.572;2023-02-16T01:18:15;101256.22;;;2.00;100.00
4085;BME280;2057;50.858;6.572;2023-02-16T01:20:41;101259.47;;;1.91;100.00
4085;BME280;2057;50.858;6.572;2023-02-16T01:23:07;101260.19;;;1.90;100.00
4085;BME280;2057;50.858;6.572;2023-02-16T01:25:35;101255.63;;;1.77;100.00
4085;BME280;2057;50.858;6.572;2023-02-16T01:28:02;101256.97;;;1.82;100.00
4085;BME280;2057;50.858;6.572;2023-02-16T01:30:27;101245.63;;;1.85;100.00
4085;BME280;2057;50.858;6.572;2023-02-16T01:32:53;101255.94;;;1.88;100.00
4085;BME280;2057;50.858;6.572;2023-02-16T01:35:21;101246.94;;;1.91;100.00
4085;BME280;2057;50.858;6.572;2023-02-16T01:37:50;101242.53;;;1.79;100.00
4085;BME280;2057;50.858;6.572;2023-02-16T01:40:37;101241.78;;;1.98;100.00
4085;BME280;2057;50.858;6.572;2023-02-16T01:45:40;101233.97;;;2.03;100.00
4085;BME280;2057;50.858;6.572;2023-02-16T01:48:29;101239.56;;;1.92;100.00
4085;BME280;2057;50.858;6.572;2023-02-16T01:51:03;101237.66;;;2.07;100.00
4085;BME280;2057;50.858;6.572;2023-02-16T01:53:45;101233.53;;;1.99;100.00
4085;BME280;2057;50.858;6.572;2023-02-16T01:56:36;101228.56;;;1.90;100.00
4085;BME280;2057;50.858;6.572;2023-02-16T01:59:13;101230.88;;;1.88;100.00
4085;BME280;2057;50.858;6.572;2023-02-16T02:04:22;101217.91;;;2.01;100.00
4085;BME280;2057;50.858;6.572;2023-02-16T02:07:13;101226.03;;;1.99;100.00
4085;BME280;2057;50.858;6.572;2023-02-16T02:09:51;101218.22;;;2.04;100.00
4085;BME280;2057;50.858;6.572;2023-02-16T02:12:23;101212.91;;;2.10;100.00
4085;BME280;2057;50.858;6.572;2023-02-16T02:14:51;101218.97;;;1.95;100.00
4085;BME280;2057;50.858;6.572;2023-02-16T02:17:19;101216.88;;;2.08;100.00
4085;BME280;2057;50.858;6.572;2023-02-16T02:36:51;101205.59;;;1.85;100.00
4085;BME280;2057;50.858;6.572;2023-02-16T02:42:12;101211.16;;;1.65;100.00
4085;BME280;2057;50.858;6.572;2023-02-16T02:44:53;101221.47;;;1.68;100.00
4085;BME280;2057;50.858;6.572;2023-02-16T02:47:20;101214.84;;;1.69;100.00
4085;BME280;2057;50.858;6.572;2023-02-16T02:49:53;101203.34;;;1.71;100.00
4085;BME280;2057;50.858;6.572;2023-02-16T02:52:20;101204.09;;;1.44;100.00
4085;BME280;2057;50.858;6.572;2023-02-16T02:54:47;101196.72;;;1.45;100.00
4085;BME280;2057;50.858;6.572;2023-02-16T02:57:47;101191.88;;;1.38;100.00
4085;BME280;2057;50.858;6.572;2023-02-16T03:00:37;101191.88;;;1.55;100.00
4085;BME280;2057;50.858;6.572;2023-02-16T03:03:28;101189.22;;;1.54;100.00
4085;BME280;2057;50.858;6.572;2023-02-16T03:08:32;101199.69;;;1.67;100.00
4085;BME280;2057;50.858;6.572;2023-02-16T03:11:04;101196.44;;;1.51;100.00
4085;BME280;2057;50.858;6.572;2023-02-16T03:13:54;101193.66;;;1.56;100.00
4085;BME280;2057;50.858;6.572;2023-02-16T03:16:27;101196.44;;;1.51;100.00
4085;BME280;2057;50.858;6.572;2023-02-16T03:18:55;101187.91;;;1.58;100.00
4085;BME280;2057;50.858;6.572;2023-02-16T03:21:40;101185.41;;;1.58;100.00
4085;BME280;2057;50.858;6.572;2023-02-16T03:24:27;101181.13;;;1.39;100.00
4085;BME280;2057;50.858;6.572;2023-02-16T03:27:16;101174.19;;;1.45;100.00
4085;BME280;2057;50.858;6.572;2023-02-16T03:30:02;101173.78;;;1.49;100.00
4085;BME280;2057;50.858;6.572;2023-02-16T03:32:29;101174.50;;;1.39;100.00
4085;BME280;2057;50.858;6.572;2023-02-16T03:34:54;101165.34;;;1.14;100.00
4085;BME280;2057;50.858;6.572;2023-02-16T03:37:19;101165.66;;;1.17;100.00
4085;BME280;2057;50.858;6.572;2023-02-16T03:39:45;101158.44;;;1.20;100.00
4085;BME280;2057;50.858;6.572;2023-02-16T03:42:29;101168.16;;;1.25;100.00
4085;BME280;2057;50.858;6.572;2023-02-16T03:44:54;101160.66;;;1.43;100.00
4085;BME280;2057;50.858;6.572;2023-02-16T03:47:20;101166.41;;;1.51;100.00
4085;BME280;2057;50.858;6.572;2023-02-16T03:49:45;101164.22;;;1.54;100.00
4085;BME280;2057;50.858;6.572;2023-02-16T03:52:10;101159.03;;;1.52;100.00
4085;BME280;2057;50.858;6.572;2023-02-16T03:54:36;101165.66;;;1.61;100.00
4085;BME280;2057;50.858;6.572;2023-02-16T03:57:01;101162.75;;;1.56;100.00
4085;BME280;2057;50.858;6.572;2023-02-16T03:59:26;101165.81;;;1.53;100.00
4085;BME280;2057;50.858;6.572;2023-02-16T04:01:52;101160.22;;;1.65;100.00
4085;BME280;2057;50.858;6.572;2023-02-16T04:04:17;101162.16;;;1.59;100.00
4085;BME280;2057;50.858;6.572;2023-02-16T04:06:42;101162.16;;;1.59;100.00
4085;BME280;2057;50.858;6.572;2023-02-16T04:09:08;101166.53;;;1.52;100.00
4085;BME280;2057;50.858;6.572;2023-02-16T04:11:33;101166.25;;;1.58;100.00
4085;BME280;2057;50.858;6.572;2023-02-16T04:14:17;101156.09;;;1.74;100.00
4085;BME280;2057;50.858;6.572;2023-02-16T04:16:42;101169.94;;;1.62;100.00
4085;BME280;2057;50.858;6.572;2023-02-16T04:19:07;101172.75;;;1.47;100.00
4085;BME280;2057;50.858;6.572;2023-02-16T04:21:33;101166.13;;;1.39;100.00
4085;BME280;2057;50.858;6.572;2023-02-16T04:23:58;101167.88;;;1.49;100.00
4085;BME280;2057;50.858;6.572;2023-02-16T04:26:24;101168.47;;;1.55;100.00
4085;BME280;2057;50.858;6.572;2023-02-16T04:28:50;101172.28;;;1.60;100.00
4085;BME280;2057;50.858;6.572;2023-02-16T04:31:15;101174.50;;;1.57;100.00
4085;BME280;2057;50.858;6.572;2023-02-16T04:33:40;101169.03;;;1.52;100.00
4085;BME280;2057;50.858;6.572;2023-02-16T04:36:06;101168.47;;;1.46;100.00
4085;BME280;2057;50.858;6.572;2023-02-16T04:38:32;101162.88;;;1.40;100.00
4085;BME280;2057;50.858;6.572;2023-02-16T04:40:57;101159.94;;;1.35;100.00
4085;BME280;2057;50.858;6.572;2023-02-16T04:43:22;101166.25;;;1.32;100.00
4085;BME280;2057;50.858;6.572;2023-02-16T04:45:48;101169.63;;;1.32;100.00
4085;BME280;2057;50.858;6.572;2023-02-16T04:48:13;101165.53;;;1.33;100.00
4085;BME280;2057;50.858;6.572;2023-02-16T04:50:38;101165.81;;;1.36;100.00
4085;BME280;2057;50.858;6.572;2023-02-16T04:53:04;101167.28;;;1.34;100.00
4085;BME280;2057;50.858;6.572;2023-02-16T04:55:29;101166.84;;;1.38;100.00
4085;BME280;2057;50.858;6.572;2023-02-16T04:57:55;101171.41;;;1.33;100.00
4085;BME280;2057;50.858;6.572;2023-02-16T05:00:21;101157.88;;;1.40;100.00
4085;BME280;2057;50.858;6.572;2023-02-16T05:02:46;101166.69;;;1.45;100.00
4085;BME280;2057;50.858;6.572;2023-02-16T05:05:12;101158.00;;;1.59;100.00
4085;BME280;2057;50.858;6.572;2023-02-16T05:07:37;101164.94;;;1.44;100.00
4085;BME280;2057;50.858;6.572;2023-02-16T05:10:04;101159.34;;;1.47;100.00
4085;BME280;2057;50.858;6.572;2023-02-16T05:12:29;101158.03;;;1.50;100.00
4085;BME280;2057;50.858;6.572;2023-02-16T05:15:13;101165.22;;;1.47;100.00
4085;BME280;2057;50.858;6.572;2023-02-16T05:17:39;101172.56;;;1.37;100.00
4085;BME280;2057;50.858;6.572;2023-02-16T05:20:05;101160.81;;;1.36;100.00
4085;BME280;2057;50.858;6.572;2023-02-16T05:22:30;101170.06;;;1.37;100.00
4085;BME280;2057;50.858;6.572;2023-02-16T05:25:00;101171.72;;;1.36;100.00
4085;BME280;2057;50.858;6.572;2023-02-16T05:27:28;101161.41;;;1.42;100.00
4085;BME280;2057;50.858;6.572;2023-02-16T05:29:54;101168.31;;;1.36;100.00
4085;BME280;2057;50.858;6.572;2023-02-16T05:32:20;101155.50;;;1.41;100.00
4085;BME280;2057;50.858;6.572;2023-02-16T05:34:46;101159.66;;;1.41;100.00
4085;BME280;2057;50.858;6.572;2023-02-16T05:37:12;101162.59;;;1.46;100.00
4085;BME280;2057;50.858;6.572;2023-02-16T05:39:39;101157.13;;;1.67;100.00
4085;BME280;2057;50.858;6.572;2023-02-16T05:42:04;101159.66;;;1.59;100.00
4085;BME280;2057;50.858;6.572;2023-02-16T05:44:30;101162.72;;;1.47;100.00
4085;BME280;2057;50.858;6.572;2023-02-16T05:46:55;101163.16;;;1.43;100.00
4085;BME280;2057;50.858;6.572;2023-02-16T05:49:21;101157.72;;;1.47;100.00
4085;BME280;2057;50.858;6.572;2023-02-16T05:51:46;101154.03;;;1.52;100.00
4085;BME280;2057;50.858;6.572;2023-02-16T05:54:12;101147.28;;;1.51;100.00
4085;BME280;2057;50.858;6.572;2023-02-16T05:56:45;101150.66;;;1.61;100.00
4085;BME280;2057;50.858;6.572;2023-02-16T05:59:11;101153.31;;;1.53;100.00
4085;BME280;2057;50.858;6.572;2023-02-16T06:01:37;101160.06;;;1.54;100.00
4085;BME280;2057;50.858;6.572;2023-02-16T06:04:08;101153.59;;;1.56;100.00
4085;BME280;2057;50.858;6.572;2023-02-16T06:06:35;101153.59;;;1.65;100.00
4085;BME280;2057;50.858;6.572;2023-02-16T06:09:01;101151.69;;;1.71;100.00
4085;BME280;2057;50.858;6.572;2023-02-16T06:11:26;101157.88;;;1.75;100.00
4085;BME280;2057;50.858;6.572;2023-02-16T06:14:04;101155.50;;;1.77;100.00
4085;BME280;2057;50.858;6.572;2023-02-16T06:16:31;101152.25;;;1.86;100.00
4085;BME280;2057;50.858;6.572;2023-02-16T06:18:58;101153.56;;;1.92;100.00
4085;BME280;2057;50.858;6.572;2023-02-16T06:21:24;101152.53;;;1.98;100.00
4085;BME280;2057;50.858;6.572;2023-02-16T06:23:50;101160.31;;;2.01;100.00
4085;BME280;2057;50.858;6.572;2023-02-16T06:26:16;101161.91;;;2.10;100.00
4085;BME280;2057;50.858;6.572;2023-02-16T06:28:41;101153.97;;;2.14;100.00
4085;BME280;2057;50.858;6.572;2023-02-16T06:31:07;101163.38;;;2.16;100.00
4085;BME280;2057;50.858;6.572;2023-02-16T06:33:34;101163.38;;;2.16;100.00
4085;BME280;2057;50.858;6.572;2023-02-16T06:36:00;101156.19;;;2.11;100.00
4085;BME280;2057;50.858;6.572;2023-02-16T06:38:25;101160.75;;;2.15;100.00
4085;BME280;2057;50.858;6.572;2023-02-16T06:40:51;101152.34;;;2.14;100.00
4085;BME280;2057;50.858;6.572;2023-02-16T06:43:17;101159.84;;;2.23;100.00
4085;BME280;2057;50.858;6.572;2023-02-16T06:45:42;101167.78;;;2.28;100.00
4085;BME280;2057;50.858;6.572;2023-02-16T06:48:08;101167.78;;;2.28;100.00
4085;BME280;2057;50.858;6.572;2023-02-16T06:50:34;101165.41;;;2.29;100.00
4085;BME280;2057;50.858;6.572;2023-02-16T06:52:59;101156.13;;;2.37;100.00
4085;BME280;2057;50.858;6.572;2023-02-16T06:55:25;101166.41;;;2.40;100.00
4085;BME280;2057;50.858;6.572;2023-02-16T06:57:50;101166.41;;;2.40;100.00
4085;BME280;2057;50.858;6.572;2023-02-16T07:00:15;101173.19;;;2.41;100.00
4085;BME280;2057;50.858;6.572;2023-02-16T07:02:41;101178.19;;;2.41;100.00
4085;BME280;2057;50.858;6.572;2023-02-16T07:05:08;101167.56;;;2.44;100.00
4085;BME280;2057;50.858;6.572;2023-02-16T07:07:33;101174.78;;;2.49;100.00
4085;BME280;2057;50.858;6.572;2023-02-16T07:09:59;101167.13;;;2.48;100.00
4085;BME280;2057;50.858;6.572;2023-02-16T07:12:24;101172.28;;;2.49;100.00
4085;BME280;2057;50.858;6.572;2023-02-16T07:14:49;101167.91;;;2.66;100.00
4085;BME280;2057;50.858;6.572;2023-02-16T07:17:14;101175.13;;;2.72;100.00
4085;BME280;2057;50.858;6.572;2023-02-16T07:19:40;101168.50;;;2.72;100.00
4085;BME280;2057;50.858;6.572;2023-02-16T07:22:06;101164.97;;;2.70;100.00
4085;BME280;2057;50.858;6.572;2023-02-16T07:24:34;101172.16;;;2.76;100.00
4085;BME280;2057;50.858;6.572;2023-02-16T07:27:00;101168.31;;;2.79;100.00
4085;BME280;2057;50.858;6.572;2023-02-16T07:29:25;101162.97;;;2.85;100.00
4085;BME280;2057;50.858;6.572;2023-02-16T07:31:51;101156.13;;;2.93;100.00
4085;BME280;2057;50.858;6.572;2023-02-16T07:34:19;101163.66;;;2.93;100.00
4085;BME280;2057;50.858;6.572;2023-02-16T07:36:45;101165.56;;;2.95;100.00
4085;BME280;2057;50.858;6.572;2023-02-16T07:39:10;101165.97;;;3.00;100.00
4085;BME280;2057;50.858;6.572;2023-02-16T07:41:36;101165.22;;;3.01;100.00
4085;BME280;2057;50.858;6.572;2023-02-16T07:44:02;101164.38;;;3.01;100.00
4085;BME280;2057;50.858;6.572;2023-02-16T07:46:27;101161.78;;;3.09;100.00
4085;BME280;2057;50.858;6.572;2023-02-16T07:48:53;101158.50;;;3.19;100.00
4085;BME280;2057;50.858;6.572;2023-02-16T07:51:23;101158.91;;;3.24;100.00
4085;BME280;2057;50.858;6.572;2023-02-16T07:53:49;101159.56;;;3.32;100.00
4085;BME280;2057;50.858;6.572;2023-02-16T07:56:26;101156.84;;;3.39;100.00
4085;BME280;2057;50.858;6.572;2023-02-16T07:58:55;101157.25;;;3.43;100.00
4085;BME280;2057;50.858;6.572;2023-02-16T08:01:22;101164.75;;;3.52;100.00
4085;BME280;2057;50.858;6.572;2023-02-16T08:03:47;101164.41;;;3.58;100.00
4085;BME280;2057;50.858;6.572;2023-02-16T08:06:13;101165.34;;;3.69;100.00
4085;BME280;2057;50.858;6.572;2023-02-16T08:08:39;101174.34;;;3.67;100.00
4085;BME280;2057;50.858;6.572;2023-02-16T08:11:13;101173.56;;;3.76;100.00
4085;BME280;2057;50.858;6.572;2023-02-16T08:13:39;101175.34;;;3.88;100.00
4085;BME280;2057;50.858;6.572;2023-02-16T08:16:14;101167.69;;;3.86;100.00
4085;BME280;2057;50.858;6.572;2023-02-16T08:18:40;101168.22;;;3.92;100.00
4085;BME280;2057;50.858;6.572;2023-02-16T08:21:16;101166.28;;;4.09;100.00
4085;BME280;2057;50.858;6.572;2023-02-16T08:23:43;101158.38;;;4.15;100.00
4085;BME280;2057;50.858;6.572;2023-02-16T08:26:12;101161.28;;;4.19;100.00
4085;BME280;2057;50.858;6.572;2023-02-16T08:28:37;101158.50;;;4.16;100.00
4085;BME280;2057;50.858;6.572;2023-02-16T08:31:04;101165.22;;;4.26;100.00
4085;BME280;2057;50.858;6.572;2023-02-16T08:33:31;101161.22;;;4.28;100.00
4085;BME280;2057;50.858;6.572;2023-02-16T08:35:57;101154.44;;;4.37;100.00
4085;BME280;2057;50.858;6.572;2023-02-16T08:38:23;101162.59;;;4.35;100.00
4085;BME280;2057;50.858;6.572;2023-02-16T08:40:49;101162.00;;;4.37;100.00
4085;BME280;2057;50.858;6.572;2023-02-16T08:43:14;101159.38;;;4.46;100.00
4085;BME280;2057;50.858;6.572;2023-02-16T08:45:46;101167.16;;;4.60;100.00
4085;BME280;2057;50.858;6.572;2023-02-16T08:48:12;101168.22;;;4.72;100.00
4085;BME280;2057;50.858;6.572;2023-02-16T08:50:42;101169.59;;;4.68;100.00
4085;BME280;2057;50.858;6.572;2023-02-16T08:53:14;101164.56;;;4.68;100.00
4085;BME280;2057;50.858;6.572;2023-02-16T08:55:39;101164.31;;;4.76;100.00
4085;BME280;2057;50.858;6.572;2023-02-16T08:58:04;101173.00;;;4.79;100.00
4085;BME280;2057;50.858;6.572;2023-02-16T09:00:30;101174.88;;;4.82;100.00
4085;BME280;2057;50.858;6.572;2023-02-16T09:02:59;101173.00;;;4.90;100.00
4085;BME280;2057;50.858;6.572;2023-02-16T09:05:25;101182.97;;;4.98;100.00
4085;BME280;2057;50.858;6.572;2023-02-16T09:07:52;101171.91;;;5.07;100.00
4085;BME280;2057;50.858;6.572;2023-02-16T09:10:18;101178.03;;;5.21;100.00
4085;BME280;2057;50.858;6.572;2023-02-16T09:12:45;101166.34;;;5.42;100.00
4085;BME280;2057;50.858;6.572;2023-02-16T09:15:14;101167.06;;;5.51;100.00
4085;BME280;2057;50.858;6.572;2023-02-16T09:17:40;101155.72;;;5.67;100.00
4085;BME280;2057;50.858;6.572;2023-02-16T09:20:07;101158.41;;;5.90;100.00
4085;BME280;2057;50.858;6.572;2023-02-16T09:22:32;101158.13;;;6.08;100.00
4085;BME280;2057;50.858;6.572;2023-02-16T09:24:58;101156.28;;;6.27;100.00
4085;BME280;2057;50.858;6.572;2023-02-16T09:27:23;101154.16;;;6.44;100.00
4085;BME280;2057;50.858;6.572;2023-02-16T09:29:49;101156.63;;;6.54;100.00
4085;BME280;2057;50.858;6.572;2023-02-16T09:32:15;101156.44;;;6.63;100.00
4085;BME280;2057;50.858;6.572;2023-02-16T09:34:41;101160.66;;;6.74;100.00
4085;BME280;2057;50.858;6.572;2023-02-16T09:37:09;101168.56;;;6.79;100.00
4085;BME280;2057;50.858;6.572;2023-02-16T09:39:34;101168.16;;;6.85;100.00
4085;BME280;2057;50.858;6.572;2023-02-16T09:44:49;101175.22;;;7.01;100.00
4085;BME280;2057;50.858;6.572;2023-02-16T09:49:46;101189.94;;;7.06;100.00
4085;BME280;2057;50.858;6.572;2023-02-16T09:54:43;101187.50;;;7.08;100.00
4085;BME280;2057;50.858;6.572;2023-02-16T10:02:54;101197.56;;;7.30;100.00
4085;BME280;2057;50.858;6.572;2023-02-16T10:05:36;101203.19;;;7.38;100.00
4085;BME280;2057;50.858;6.572;2023-02-16T10:08:36;101202.88;;;7.45;100.00
4085;BME280;2057;50.858;6.572;2023-02-16T10:14:33;101204.28;;;7.42;100.00
4085;BME280;2057;50.858;6.572;2023-02-16T10:17:12;101203.19;;;7.38;100.00
4085;BME280;2057;50.858;6.572;2023-02-16T10:25:07;101208.47;;;7.41;100.00
4085;BME280;2057;50.858;6.572;2023-02-16T10:27:38;101200.09;;;7.42;100.00
4085;BME280;2057;50.858;6.572;2023-02-16T10:30:14;101205.41;;;7.45;100.00
4085;BME280;2057;50.858;6.572;2023-02-16T10:32:56;101196.72;;;7.53;100.00
4085;BME280;2057;50.858;6.572;2023-02-16T10:38:16;101200.91;;;7.77;100.00
4085;BME280;2057;50.858;6.572;2023-02-16T10:43:46;101202.69;;;7.90;100.00
4085;BME280;2057;50.858;6.572;2023-02-16T10:46:21;101207.84;;;7.91;100.00
4085;BME280;2057;50.858;6.572;2023-02-16T10:48:51;101207.84;;;7.91;100.00
4085;BME280;2057;50.858;6.572;2023-02-16T10:51:17;101206.75;;;7.88;100.00
4085;BME280;2057;50.858;6.572;2023-02-16T10:53:50;101200.16;;;7.90;100.00
4085;BME280;2057;50.858;6.572;2023-02-16T10:56:20;101195.75;;;7.87;100.00
4085;BME280;2057;50.858;6.572;2023-02-16T10:58:48;101194.19;;;7.89;100.00
4085;BME280;2057;50.858;6.572;2023-02-16T11:01:18;101191.03;;;7.92;100.00
4085;BME280;2057;50.858;6.572;2023-02-16T11:03:46;101189.25;;;8.03;100.00
4085;BME280;2057;50.858;6.572;2023-02-16T11:08:54;101190.03;;;8.62;100.00
4085;BME280;2057;50.858;6.572;2023-02-16T11:11:30;101178.03;;;9.10;98.96
4085;BME280;2057;50.858;6.572;2023-02-16T11:14:06;101174.66;;;9.37;95.94
4085;BME280;2057;50.858;6.572;2023-02-16T11:16:34;101170.97;;;9.45;94.74
4085;BME280;2057;50.858;6.572;2023-02-16T11:19:00;101168.94;;;9.53;94.57
4085;BME280;2057;50.858;6.572;2023-02-16T11:21:46;101167.28;;;9.67;93.15
4085;BME280;2057;50.858;6.572;2023-02-16T11:24:26;101169.63;;;9.77;92.51
4085;BME280;2057;50.858;6.572;2023-02-16T11:27:03;101169.78;;;9.80;92.25
4085;BME280;2057;50.858;6.572;2023-02-16T11:29:29;101161.69;;;9.86;91.57
4085;BME280;2057;50.858;6.572;2023-02-16T11:31:56;101163.28;;;9.84;91.51
4085;BME280;2057;50.858;6.572;2023-02-16T11:34:34;101160.63;;;9.96;90.83
4085;BME280;2057;50.858;6.572;2023-02-16T11:37:14;101154.47;;;10.05;90.66
4085;BME280;2057;50.858;6.572;2023-02-16T11:39:48;101156.81;;;10.02;91.36
4085;BME280;2057;50.858;6.572;2023-02-16T11:44:51;101151.84;;;9.91;91.61
4085;BME280;2057;50.858;6.572;2023-02-16T11:52:31;101139.09;;;9.62;93.90
4085;BME280;2057;50.858;6.572;2023-02-16T11:54:59;101143.78;;;9.56;94.75
4085;BME280;2057;50.858;6.572;2023-02-16T11:57:31;101143.50;;;9.51;96.18
4085;BME280;2057;50.858;6.572;2023-02-16T11:59:58;101140.38;;;9.42;96.72
4085;BME280;2057;50.858;6.572;2023-02-16T12:05:11;101133.16;;;9.48;97.21
4085;BME280;2057;50.858;6.572;2023-02-16T12:10:21;101146.50;;;9.46;98.26
4085;BME280;2057;50.858;6.572;2023-02-16T12:13:00;101135.28;;;9.42;99.31
4085;BME280;2057;50.858;6.572;2023-02-16T12:20:52;101124.09;;;9.38;100.00
4085;BME280;2057;50.858;6.572;2023-02-16T12:31:48;101136.00;;;9.39;99.30
4085;BME280;2057;50.858;6.572;2023-02-16T12:34:29;101125.53;;;9.48;99.56
4085;BME280;2057;50.858;6.572;2023-02-16T12:37:21;101122.72;;;9.44;100.00
4085;BME280;2057;50.858;6.572;2023-02-16T12:42:34;101099.34;;;9.48;100.00
4085;BME280;2057;50.858;6.572;2023-02-16T12:45:12;101086.63;;;9.61;100.00
4085;BME280;2057;50.858;6.572;2023-02-16T12:47:44;101087.00;;;9.67;100.00
4085;BME280;2057;50.858;6.572;2023-02-16T12:53:14;101092.66;;;9.90;100.00
4085;BME280;2057;50.858;6.572;2023-02-16T12:55:48;101093.22;;;9.99;99.61
4085;BME280;2057;50.858;6.572;2023-02-16T12:58:22;101091.91;;;10.06;98.42
4085;BME280;2057;50.858;6.572;2023-02-16T13:00:55;101092.09;;;10.09;96.94
4085;BME280;2057;50.858;6.572;2023-02-16T13:06:13;101081.81;;;10.21;97.99
4085;BME280;2057;50.858;6.572;2023-02-16T13:08:54;101091.41;;;10.12;98.19
4085;BME280;2057;50.858;6.572;2023-02-16T13:11:34;101088.50;;;10.05;98.51
4085;BME280;2057;50.858;6.572;2023-02-16T13:14:05;101093.56;;;10.05;98.95
4085;BME280;2057;50.858;6.572;2023-02-16T13:19:04;101087.72;;;10.07;97.84
4085;BME280;2057;50.858;6.572;2023-02-16T13:24:17;101076.03;;;10.24;97.97
4085;BME280;2057;50.858;6.572;2023-02-16T13:29:53;101059.50;;;10.59;96.03
4085;BME280;2057;50.858;6.572;2023-02-16T13:32:50;101061.25;;;10.60;96.57
4085;BME280;2057;50.858;6.572;2023-02-16T13:43:40;101050.16;;;11.03;92.62
4085;BME280;2057;50.858;6.572;2023-02-16T13:46:13;101042.69;;;11.06;91.98
4085;BME280;2057;50.858;6.572;2023-02-16T13:48:48;101042.25;;;11.13;92.00
4085;BME280;2057;50.858;6.572;2023-02-16T13:51:23;101028.91;;;11.17;92.51
4085;BME280;2057;50.858;6.572;2023-02-16T13:54:00;101028.47;;;11.24;92.12
4085;BME280;2057;50.858;6.572;2023-02-16T13:56:36;101015.28;;;11.32;90.03
4085;BME280;2057;50.858;6.572;2023-02-16T14:01:44;101008.38;;;11.60;84.25
4085;BME280;2057;50.858;6.572;2023-02-16T14:06:39;100999.88;;;11.76;81.21
4085;BME280;2057;50.858;6.572;2023-02-16T14:22:27;100995.13;;;12.16;83.68
4085;BME280;2057;50.858;6.572;2023-02-16T14:24:57;100989.91;;;12.13;84.49
4085;BME280;2057;50.858;6.572;2023-02-16T14:38:25;100988.34;;;12.33;71.69
4085;BME280;2057;50.858;6.572;2023-02-16T14:49:03;100983.56;;;12.39;68.44
4085;BME280;2057;50.858;6.572;2023-02-16T14:56:47;100986.16;;;12.40;67.28
4085;BME280;2057;50.858;6.572;2023-02-16T15:02:33;100984.69;;;12.28;69.52
4085;BME280;2057;50.858;6.572;2023-02-16T15:07:42;100982.06;;;12.26;72.20
4085;BME280;2057;50.858;6.572;2023-02-16T15:10:11;100975.69;;;12.34;71.16
4085;BME280;2057;50.858;6.572;2023-02-16T15:12:43;100972.47;;;12.55;70.89
4085;BME280;2057;50.858;6.572;2023-02-16T15:15:17;100967.25;;;12.53;70.69
4085;BME280;2057;50.858;6.572;2023-02-16T15:17:46;100954.00;;;12.43;73.03
4085;BME280;2057;50.858;6.572;2023-02-16T15:20:33;100952.13;;;12.57;73.22
4085;BME280;2057;50.858;6.572;2023-02-16T15:23:01;100949.31;;;12.50;74.53
4085;BME280;2057;50.858;6.572;2023-02-16T15:25:30;100942.91;;;12.59;74.41
4085;BME280;2057;50.858;6.572;2023-02-16T15:28:13;100938.44;;;12.54;73.89
4085;BME280;2057;50.858;6.572;2023-02-16T15:31:06;100948.97;;;12.61;72.92
4085;BME280;2057;50.858;6.572;2023-02-16T15:36:02;100940.81;;;12.68;72.88
4085;BME280;2057;50.858;6.572;2023-02-16T15:38:31;100939.97;;;12.51;74.37
4085;BME280;2057;50.858;6.572;2023-02-16T15:41:02;100938.00;;;12.45;75.01
4085;BME280;2057;50.858;6.572;2023-02-16T15:43:45;100945.59;;;12.62;74.56
4085;BME280;2057;50.858;6.572;2023-02-16T15:46:35;100949.16;;;12.47;75.71
4085;BME280;2057;50.858;6.572;2023-02-16T15:49:26;100948.50;;;12.51;75.41
4085;BME280;2057;50.858;6.572;2023-02-16T15:51:54;100951.25;;;12.38;75.84
4085;BME280;2057;50.858;6.572;2023-02-16T15:54:27;100957.28;;;12.40;74.84
4085;BME280;2057;50.858;6.572;2023-02-16T15:56:57;100953.84;;;12.21;78.33
4085;BME280;2057;50.858;6.572;2023-02-16T15:59:39;100954.66;;;12.04;78.43
4085;BME280;2057;50.858;6.572;2023-02-16T16:02:20;100960.41;;;12.00;76.53
4085;BME280;2057;50.858;6.572;2023-02-16T16:04:49;100961.19;;;11.99;75.32
4085;BME280;2057;50.858;6.572;2023-02-16T16:07:31;100967.53;;;12.07;74.77
4085;BME280;2057;50.858;6.572;2023-02-16T16:10:00;100956.97;;;11.99;74.12